Time;durP1;ratioP1;P1;durP2;ratioP2;P2;SDS_P1;SDS_P2;PMS_P1;PMS_P2;Temp;Humidity;BMP_temperature;BMP_pressure;BME280_temperature;BME280_humidity;BME280_pressure;Samples;Min_cycle;Max_cycle;Signal;HPM_P1;HPM_P2
2022/12/18 00:01:15;;;;;;;72.70;31.93;;;-4.10;99.90;;;;;;5021300;28;20082;-79
2022/12/18 00:03:40;;;;;;;63.33;26.80;;;-4.20;99.90;;;;;;5021715;28;20041;-79
2022/12/18 00:06:06;;;;;;;70.30;30.53;;;-4.20;99.90;;;;;;5021532;28;20116;-79
2022/12/18 00:08:31;;;;;;;72.63;30.70;;;-4.20;99.90;;;;;;5007600;28;20044;-79
2022/12/18 00:11:04;;;;;;;65.50;29.20;;;-4.30;99.90;;;;;;5021211;28;20104;-79
2022/12/18 00:13:30;;;;;;;72.43;30.57;;;-4.30;99.90;;;;;;5020927;28;20032;-79
2022/12/18 00:16:00;;;;;;;70.00;29.67;;;-4.40;99.90;;;;;;5021848;28;20061;-79
2022/12/18 00:18:26;;;;;;;74.20;30.13;;;-4.50;99.90;;;;;;5020980;28;20057;-79
2022/12/18 00:20:51;;;;;;;79.37;32.37;;;-4.50;99.90;;;;;;5007994;28;20167;-79
2022/12/18 00:23:17;;;;;;;81.00;33.70;;;-4.60;99.90;;;;;;5008045;28;20048;-79
2022/12/18 00:25:42;;;;;;;77.53;32.47;;;-4.60;99.90;;;;;;5024148;28;20045;-79
2022/12/18 00:28:08;;;;;;;69.93;30.23;;;-4.60;99.90;;;;;;5022922;28;20390;-79
2022/12/18 00:30:34;;;;;;;82.13;32.77;;;-4.60;99.90;;;;;;5021716;28;20029;-79
2022/12/18 00:32:59;;;;;;;76.37;32.87;;;-4.60;99.90;;;;;;5022577;28;20040;-79
2022/12/18 00:35:25;;;;;;;76.37;30.87;;;-4.70;99.90;;;;;;5025172;28;20021;-79
2022/12/18 00:37:50;;;;;;;77.90;31.47;;;-4.80;99.90;;;;;;5026054;28;20458;-79
2022/12/18 00:40:16;;;;;;;80.10;32.00;;;-4.80;99.90;;;;;;5025797;28;20095;-79
2022/12/18 00:42:57;;;;;;;89.27;32.80;;;-4.80;99.90;;;;;;5025638;28;20032;-79
2022/12/18 00:45:28;;;;;;;88.73;34.03;;;-4.80;99.90;;;;;;5025843;28;20033;-79
2022/12/18 00:47:55;;;;;;;76.97;33.33;;;-4.90;99.90;;;;;;5024644;28;20108;-79
2022/12/18 00:50:21;;;;;;;83.10;32.07;;;-4.90;99.90;;;;;;5015745;28;20025;-79
2022/12/18 00:52:47;;;;;;;82.33;33.27;;;-4.90;99.90;;;;;;5025053;28;20029;-79
2022/12/18 00:55:13;;;;;;;71.60;31.13;;;-5.00;99.90;;;;;;5027399;28;20022;-79
2022/12/18 00:57:40;;;;;;;76.73;31.27;;;-5.00;99.90;;;;;;5026352;28;20021;-79
2022/12/18 01:00:08;;;;;;;79.33;32.40;;;-5.00;99.90;;;;;;5024825;28;20030;-79
2022/12/18 01:02:34;;;;;;;80.83;33.57;;;-5.00;99.90;;;;;;5024676;28;20029;-79
2022/12/18 01:04:59;;;;;;;85.37;31.97;;;-5.00;99.90;;;;;;5025544;28;20040;-79
2022/12/18 01:07:25;;;;;;;88.33;33.83;;;-5.00;99.90;;;;;;5024737;28;20053;-79
2022/12/18 01:09:51;;;;;;;86.67;32.27;;;-5.00;99.90;;;;;;5025073;28;20030;-79
2022/12/18 01:12:16;;;;;;;83.23;31.87;;;-5.10;99.90;;;;;;5024601;28;20116;-79
2022/12/18 01:14:42;;;;;;;85.57;32.47;;;-5.10;99.90;;;;;;5025562;28;20041;-79
2022/12/18 01:17:07;;;;;;;97.87;33.27;;;-5.10;99.90;;;;;;5024543;28;20108;-79
2022/12/18 01:19:33;;;;;;;98.77;33.17;;;-5.10;99.90;;;;;;5024814;28;20026;-79
2022/12/18 01:21:59;;;;;;;99.87;32.87;;;-5.10;99.90;;;;;;5025052;28;20025;-79
2022/12/18 01:24:25;;;;;;;92.13;31.77;;;-5.10;99.90;;;;;;5024815;28;20033;-79
2022/12/18 01:26:50;;;;;;;90.67;33.47;;;-5.10;99.90;;;;;;5025514;28;20030;-79
2022/12/18 01:29:16;;;;;;;93.50;33.83;;;-5.10;99.90;;;;;;5013627;28;20296;-78
2022/12/18 01:31:42;;;;;;;89.73;33.20;;;-5.10;99.90;;;;;;5012308;28;20347;-79
2022/12/18 01:34:08;;;;;;;86.43;32.07;;;-5.20;99.90;;;;;;5024877;28;20065;-79
2022/12/18 01:36:36;;;;;;;84.23;30.00;;;-5.20;99.90;;;;;;5026052;28;20059;-79
2022/12/18 01:39:10;;;;;;;81.83;31.90;;;-5.20;99.90;;;;;;5013885;28;20033;-79
2022/12/18 01:44:53;;;;;;;76.55;29.88;;;-5.30;99.90;;;;;;5025432;28;20080;-79
2022/12/18 01:47:36;;;;;;;81.67;30.27;;;-5.20;99.90;;;;;;5024924;28;20116;-79
2022/12/18 01:50:17;;;;;;;79.47;29.77;;;-5.30;99.90;;;;;;5013598;28;20026;-79
2022/12/18 01:52:46;;;;;;;81.07;29.90;;;-5.30;99.90;;;;;;5024883;28;21444;-79
2022/12/18 01:55:13;;;;;;;83.50;30.07;;;-5.30;99.90;;;;;;5025349;28;20025;-79
2022/12/18 01:57:40;;;;;;;75.87;28.03;;;-5.30;99.90;;;;;;5025189;28;20120;-79
2022/12/18 02:00:12;;;;;;;81.90;28.70;;;-5.30;99.90;;;;;;5025238;28;20084;-79
2022/12/18 02:02:39;;;;;;;78.90;28.80;;;-5.20;99.90;;;;;;5024073;28;20028;-79
2022/12/18 02:05:06;;;;;;;83.93;28.60;;;-5.20;99.90;;;;;;5023923;28;20029;-79
2022/12/18 02:07:35;;;;;;;82.73;28.77;;;-5.30;99.90;;;;;;5013932;28;20049;-80
2022/12/18 02:10:19;;;;;;;85.17;30.47;;;-5.20;99.90;;;;;;5014695;28;20312;-79
2022/12/18 02:13:12;;;;;;;87.33;29.00;;;-5.20;99.90;;;;;;5023385;28;20040;-79
2022/12/18 02:16:06;;;;;;;87.03;31.17;;;-5.20;99.90;;;;;;5023244;28;20025;-79
2022/12/18 02:18:48;;;;;;;84.37;30.93;;;-5.20;99.90;;;;;;5003000;28;20089;-79
2022/12/18 02:21:13;;;;;;;86.37;29.83;;;-5.20;99.90;;;;;;5012030;28;20429;-79
2022/12/18 02:24:04;;;;;;;90.77;31.40;;;-5.20;99.90;;;;;;5023608;28;20029;-79
2022/12/18 02:26:34;;;;;;;85.70;28.83;;;-5.10;99.90;;;;;;5025350;28;20032;-79
2022/12/18 02:29:13;;;;;;;97.53;30.53;;;-5.10;99.90;;;;;;5013898;28;20029;-79
2022/12/18 02:32:00;;;;;;;81.90;30.67;;;-5.10;99.90;;;;;;5027123;28;20021;-79
2022/12/18 02:34:37;;;;;;;86.20;32.53;;;-5.00;99.90;;;;;;5025692;28;20030;-79
2022/12/18 02:37:07;;;;;;;81.97;30.37;;;-5.00;99.90;;;;;;5028367;28;20075;-79
2022/12/18 02:39:35;;;;;;;80.63;30.30;;;-5.00;99.90;;;;;;5030160;28;20024;-79
2022/12/18 02:42:07;;;;;;;78.87;29.37;;;-5.00;99.90;;;;;;5028990;28;20051;-79
2022/12/18 02:44:43;;;;;;;70.13;26.83;;;-4.90;99.90;;;;;;5030503;28;20087;-79
2022/12/18 02:47:11;;;;;;;69.67;26.57;;;-4.90;99.90;;;;;;5029414;28;20077;-79
2022/12/18 02:49:51;;;;;;;73.93;27.37;;;-4.80;99.90;;;;;;5029689;28;20032;-79
2022/12/18 02:52:57;;;;;;;67.53;25.70;;;-4.80;99.90;;;;;;5028241;28;20159;-79
2022/12/18 02:55:52;;;;;;;65.93;25.90;;;-4.80;99.90;;;;;;4993469;28;20047;-79
2022/12/18 02:58:48;;;;;;;66.03;26.73;;;-4.80;99.90;;;;;;5029541;28;20486;-79
2022/12/18 03:01:26;;;;;;;60.60;25.73;;;-4.70;99.90;;;;;;5019638;28;20032;-79
2022/12/18 03:03:57;;;;;;;72.50;26.70;;;-4.60;99.90;;;;;;5028831;28;20022;-79
2022/12/18 03:06:46;;;;;;;67.43;28.20;;;-4.60;99.90;;;;;;5028152;28;20034;-79
2022/12/18 03:09:21;;;;;;;68.00;26.63;;;-4.60;99.90;;;;;;5028224;28;20021;-79
2022/12/18 03:14:43;;;;;;;69.20;27.43;;;-4.60;99.90;;;;;;5028612;28;20047;-79
2022/12/18 03:17:13;;;;;;;68.53;28.37;;;-4.60;99.90;;;;;;5028536;28;20022;-79
2022/12/18 03:19:41;;;;;;;74.47;28.73;;;-4.60;99.90;;;;;;5027752;28;20470;-79
2022/12/18 03:22:09;;;;;;;75.47;28.93;;;-4.60;99.90;;;;;;5027802;28;20359;-79
2022/12/18 03:24:38;;;;;;;78.40;29.83;;;-4.60;99.90;;;;;;5028283;28;20108;-80
2022/12/18 03:27:09;;;;;;;83.83;29.73;;;-4.70;99.90;;;;;;5028599;28;20068;-79
2022/12/18 03:29:50;;;;;;;81.10;31.50;;;-4.60;99.90;;;;;;5029107;28;20049;-79
2022/12/18 03:32:29;;;;;;;84.13;32.17;;;-4.60;99.90;;;;;;5028491;28;20131;-79
2022/12/18 03:34:59;;;;;;;83.77;32.53;;;-4.60;99.90;;;;;;5028220;28;20025;-79
2022/12/18 03:37:25;;;;;;;88.57;32.27;;;-4.70;99.90;;;;;;5027994;28;20030;-79
2022/12/18 03:39:51;;;;;;;85.90;33.23;;;-4.70;99.90;;;;;;5048994;28;20029;-79
2022/12/18 03:42:27;;;;;;;92.83;33.50;;;-4.70;99.90;;;;;;5027033;28;20040;-79
2022/12/18 03:45:02;;;;;;;89.03;34.77;;;-4.70;99.90;;;;;;5027989;28;20044;-79
2022/12/18 03:47:39;;;;;;;94.97;35.00;;;-4.70;99.90;;;;;;5018410;28;20092;-79
2022/12/18 03:50:24;;;;;;;92.90;33.67;;;-4.70;99.90;;;;;;5016214;28;20029;-79
2022/12/18 03:52:56;;;;;;;92.83;33.40;;;-4.70;99.90;;;;;;5028761;28;20029;-79
2022/12/18 03:55:23;;;;;;;82.77;32.50;;;-4.70;99.90;;;;;;5027134;28;20029;-79
2022/12/18 03:57:51;;;;;;;88.40;33.27;;;-4.70;99.90;;;;;;5029224;28;20028;-80
2022/12/18 04:00:18;;;;;;;92.90;34.57;;;-4.70;99.90;;;;;;5016967;28;20184;-80
2022/12/18 04:02:50;;;;;;;89.60;32.87;;;-4.70;99.90;;;;;;5028627;28;20036;-79
2022/12/18 04:05:18;;;;;;;87.30;33.33;;;-4.70;99.90;;;;;;5027455;28;20486;-79
2022/12/18 04:07:46;;;;;;;87.80;34.27;;;-4.70;99.90;;;;;;5028417;28;20045;-79
2022/12/18 04:10:13;;;;;;;87.83;32.13;;;-4.60;99.90;;;;;;5028058;28;20025;-80
2022/12/18 04:12:39;;;;;;;89.03;35.73;;;-4.70;99.90;;;;;;5027347;28;20036;-79
2022/12/18 04:15:05;;;;;;;95.00;35.53;;;-4.70;99.90;;;;;;5028667;28;20026;-79
2022/12/18 04:17:31;;;;;;;97.27;35.73;;;-4.70;99.90;;;;;;5030528;28;20013;-79
2022/12/18 04:19:57;;;;;;;90.87;33.83;;;-4.70;99.90;;;;;;5029598;28;20029;-80
2022/12/18 04:22:22;;;;;;;87.80;32.80;;;-4.70;99.90;;;;;;5030014;28;20466;-75
2022/12/18 04:24:48;;;;;;;85.30;33.17;;;-4.70;99.90;;;;;;5032016;28;20052;-75
2022/12/18 04:27:13;;;;;;;85.77;33.63;;;-4.70;99.90;;;;;;5018892;28;20033;-75
2022/12/18 04:29:39;;;;;;;80.43;30.70;;;-4.70;99.90;;;;;;5037060;28;20024;-74
2022/12/18 04:32:05;;;;;;;90.53;36.87;;;-4.70;99.90;;;;;;5033877;28;20110;-75
2022/12/18 04:34:30;;;;;;;78.87;33.03;;;-4.70;99.90;;;;;;5032403;28;20035;-75
2022/12/18 04:36:56;;;;;;;87.13;33.17;;;-4.70;99.90;;;;;;5032863;28;20021;-75
2022/12/18 04:39:22;;;;;;;83.57;32.67;;;-4.70;99.90;;;;;;5029923;28;20038;-75
2022/12/18 04:41:47;;;;;;;89.40;33.57;;;-4.70;99.90;;;;;;5033758;28;20018;-74
2022/12/18 04:44:13;;;;;;;78.23;32.53;;;-4.70;99.90;;;;;;5033745;28;20056;-75
2022/12/18 04:46:38;;;;;;;79.00;32.10;;;-4.70;99.90;;;;;;5030138;28;20104;-74
2022/12/18 04:49:04;;;;;;;84.97;31.63;;;-4.70;99.90;;;;;;5031320;28;20053;-75
2022/12/18 04:51:30;;;;;;;83.53;31.73;;;-4.70;99.90;;;;;;5031166;28;20056;-75
2022/12/18 04:53:55;;;;;;;86.97;31.37;;;-4.70;99.90;;;;;;5029834;28;20017;-75
2022/12/18 04:56:21;;;;;;;83.37;31.80;;;-4.70;99.90;;;;;;5030811;28;20057;-75
2022/12/18 04:58:47;;;;;;;84.50;34.37;;;-4.70;99.90;;;;;;5030586;28;20017;-75
2022/12/18 05:01:14;;;;;;;78.97;32.20;;;-4.70;99.90;;;;;;5019382;28;20074;-75
2022/12/18 05:03:40;;;;;;;78.47;31.43;;;-4.70;99.90;;;;;;5032408;28;20021;-75
2022/12/18 05:06:07;;;;;;;80.20;31.73;;;-4.70;99.90;;;;;;5035731;28;20109;-75
2022/12/18 05:08:33;;;;;;;82.40;31.93;;;-4.70;99.90;;;;;;5029865;28;20112;-75
2022/12/18 05:11:00;;;;;;;70.63;29.00;;;-4.70;99.90;;;;;;5031382;28;20156;-75
2022/12/18 05:13:26;;;;;;;79.57;31.37;;;-4.70;99.90;;;;;;5030547;28;20044;-75
2022/12/18 05:15:53;;;;;;;76.87;31.23;;;-4.70;99.90;;;;;;5021245;28;20025;-75
2022/12/18 05:18:18;;;;;;;78.80;30.47;;;-4.70;99.90;;;;;;5018313;28;20024;-75
2022/12/18 05:20:44;;;;;;;75.80;30.83;;;-4.70;99.90;;;;;;5030460;28;20482;-74
2022/12/18 05:23:09;;;;;;;77.73;30.83;;;-4.70;99.90;;;;;;5029630;28;20129;-75
2022/12/18 05:25:35;;;;;;;70.63;28.83;;;-4.70;99.90;;;;;;5030552;28;20021;-75
2022/12/18 05:28:00;;;;;;;78.53;31.07;;;-4.70;99.90;;;;;;5031037;28;20708;-75
2022/12/18 05:30:27;;;;;;;79.67;29.77;;;-4.70;99.90;;;;;;5018653;28;20115;-75
2022/12/18 05:32:53;;;;;;;75.47;29.43;;;-4.70;99.90;;;;;;5030934;28;20041;-75
2022/12/18 05:35:19;;;;;;;69.87;28.00;;;-4.70;99.90;;;;;;5030343;28;20057;-75
2022/12/18 05:37:44;;;;;;;70.17;28.27;;;-4.70;99.90;;;;;;5029659;28;20021;-75
2022/12/18 05:40:11;;;;;;;74.67;31.47;;;-4.70;99.90;;;;;;5035867;28;20022;-75
2022/12/18 05:42:37;;;;;;;75.53;28.57;;;-4.70;99.90;;;;;;5028046;28;20045;-75
2022/12/18 05:45:03;;;;;;;75.60;28.80;;;-4.70;99.90;;;;;;5020785;28;20072;-75
2022/12/18 05:47:28;;;;;;;70.87;28.77;;;-4.70;99.90;;;;;;5027208;28;20030;-75
2022/12/18 05:49:54;;;;;;;69.33;28.20;;;-4.70;99.90;;;;;;5027938;28;20018;-75
2022/12/18 05:52:20;;;;;;;72.83;29.00;;;-4.70;99.90;;;;;;5028432;28;20100;-75
2022/12/18 05:54:46;;;;;;;85.17;32.97;;;-4.70;99.90;;;;;;5029387;28;20104;-75
2022/12/18 05:57:11;;;;;;;97.57;44.20;;;-4.70;99.90;;;;;;5029105;28;20033;-75
2022/12/18 05:59:37;;;;;;;75.60;32.23;;;-4.70;99.90;;;;;;5028486;28;20017;-75
2022/12/18 06:02:02;;;;;;;73.33;28.77;;;-4.70;99.90;;;;;;5029107;28;20025;-75
2022/12/18 06:04:28;;;;;;;67.37;28.10;;;-4.70;99.90;;;;;;5019014;28;20022;-75
2022/12/18 06:06:54;;;;;;;66.93;28.03;;;-4.80;99.90;;;;;;5019411;28;20095;-75
2022/12/18 06:09:20;;;;;;;74.30;30.33;;;-4.70;99.90;;;;;;5029211;28;20101;-75
2022/12/18 06:11:45;;;;;;;79.83;35.03;;;-4.70;99.90;;;;;;5033711;28;20021;-75
2022/12/18 06:14:11;;;;;;;74.13;30.53;;;-4.70;99.90;;;;;;5032845;28;20025;-75
2022/12/18 06:16:37;;;;;;;68.67;28.23;;;-4.70;99.90;;;;;;5034898;28;20055;-75
2022/12/18 06:19:04;;;;;;;74.43;31.17;;;-4.70;99.90;;;;;;5036024;28;20032;-76
2022/12/18 06:21:31;;;;;;;72.17;31.03;;;-4.70;99.90;;;;;;5034439;28;20314;-76
2022/12/18 06:23:57;;;;;;;67.57;28.30;;;-4.70;99.90;;;;;;5032267;28;20048;-76
2022/12/18 06:26:22;;;;;;;64.17;28.80;;;-4.70;99.90;;;;;;5031991;28;20033;-76
2022/12/18 06:28:48;;;;;;;68.80;28.87;;;-4.70;99.90;;;;;;5035833;28;20025;-76
2022/12/18 06:31:13;;;;;;;72.67;29.17;;;-4.70;99.90;;;;;;5033247;28;20414;-77
2022/12/18 06:33:39;;;;;;;70.10;28.90;;;-4.60;99.90;;;;;;5034839;28;20029;-76
2022/12/18 06:36:08;;;;;;;73.77;30.53;;;-4.60;99.90;;;;;;5032324;28;20021;-76
2022/12/18 06:38:35;;;;;;;96.17;42.13;;;-4.60;99.90;;;;;;5033060;28;20028;-76
2022/12/18 06:41:05;;;;;;;77.23;34.03;;;-4.60;99.90;;;;;;5035042;28;20888;-76
2022/12/18 06:43:31;;;;;;;64.97;27.43;;;-4.60;99.90;;;;;;5021301;28;20375;-77
2022/12/18 06:46:00;;;;;;;68.67;29.33;;;-4.60;99.90;;;;;;5032829;28;20043;-76
2022/12/18 06:48:25;;;;;;;68.77;30.63;;;-4.60;99.90;;;;;;5017264;28;20040;-76
2022/12/18 06:50:51;;;;;;;65.80;29.10;;;-4.60;99.90;;;;;;5031105;28;20026;-76
2022/12/18 06:53:16;;;;;;;67.67;28.27;;;-4.60;99.90;;;;;;5030822;28;20025;-76
2022/12/18 06:55:42;;;;;;;61.97;28.87;;;-4.60;99.90;;;;;;5032077;28;20080;-76
2022/12/18 06:58:08;;;;;;;67.93;31.90;;;-4.60;99.90;;;;;;5029727;28;20092;-76
2022/12/18 07:00:34;;;;;;;69.50;29.27;;;-4.60;99.90;;;;;;5032007;28;20071;-76
2022/12/18 07:02:59;;;;;;;62.43;28.67;;;-4.60;99.90;;;;;;5033096;28;20021;-76
2022/12/18 07:05:25;;;;;;;67.07;31.47;;;-4.60;99.90;;;;;;5030656;28;20025;-76
2022/12/18 07:07:50;;;;;;;71.17;28.73;;;-4.60;99.90;;;;;;5027329;28;20041;-76
2022/12/18 07:10:16;;;;;;;66.03;27.30;;;-4.60;99.90;;;;;;5013750;28;20068;-76
2022/12/18 07:12:41;;;;;;;64.97;27.10;;;-4.60;99.90;;;;;;5028972;28;20706;-76
2022/12/18 07:15:07;;;;;;;63.90;26.73;;;-4.60;99.90;;;;;;5027928;28;20770;-76
2022/12/18 07:17:33;;;;;;;63.10;26.63;;;-4.60;99.90;;;;;;5028780;28;20096;-76
2022/12/18 07:19:58;;;;;;;57.07;24.47;;;-4.70;99.90;;;;;;5014271;28;20028;-76
2022/12/18 07:22:25;;;;;;;61.80;25.90;;;-4.70;99.90;;;;;;5026122;28;20463;-76
2022/12/18 07:24:51;;;;;;;62.77;25.90;;;-4.70;99.90;;;;;;5027385;28;20110;-76
2022/12/18 07:27:17;;;;;;;59.07;23.87;;;-4.70;99.90;;;;;;5030004;28;20033;-76
2022/12/18 07:29:42;;;;;;;62.23;27.00;;;-4.80;99.90;;;;;;5033448;28;20111;-76
2022/12/18 07:32:09;;;;;;;60.80;26.70;;;-4.90;99.90;;;;;;5030397;28;20044;-76
2022/12/18 07:34:34;;;;;;;66.90;29.13;;;-4.90;99.90;;;;;;5010075;28;20060;-76
2022/12/18 07:37:00;;;;;;;61.73;28.03;;;-4.90;99.90;;;;;;5008714;28;20018;-76
2022/12/18 07:39:26;;;;;;;79.57;37.33;;;-4.90;99.90;;;;;;5026319;28;20025;-76
2022/12/18 07:44:36;;;;;;;63.20;26.13;;;-4.90;99.90;;;;;;5025365;28;20040;-76
2022/12/18 07:47:01;;;;;;;60.80;25.10;;;-4.90;99.90;;;;;;5025557;28;20047;-76
2022/12/18 07:49:27;;;;;;;67.53;25.37;;;-5.00;99.90;;;;;;5025822;28;20026;-76
2022/12/18 07:51:56;;;;;;;65.37;27.40;;;-4.90;99.90;;;;;;5026067;28;20072;-76
2022/12/18 07:54:22;;;;;;;62.87;26.77;;;-5.00;99.90;;;;;;5011313;28;20076;-76
2022/12/18 07:56:48;;;;;;;65.53;28.10;;;-5.00;99.90;;;;;;5025043;28;20105;-76
2022/12/18 07:59:14;;;;;;;58.67;23.27;;;-5.00;99.90;;;;;;5010743;28;20462;-76
2022/12/18 08:01:39;;;;;;;64.57;26.60;;;-4.90;99.90;;;;;;5009439;28;20034;-76
2022/12/18 08:04:05;;;;;;;62.73;26.17;;;-4.90;99.90;;;;;;5026004;28;20018;-75
2022/12/18 08:06:31;;;;;;;60.90;25.57;;;-4.90;99.90;;;;;;5025287;28;20037;-76
2022/12/18 08:08:56;;;;;;;59.70;25.20;;;-4.90;99.90;;;;;;5027575;28;20387;-75
2022/12/18 08:11:24;;;;;;;62.70;25.33;;;-4.80;99.90;;;;;;5027972;28;20029;-76
2022/12/18 08:13:50;;;;;;;64.20;26.03;;;-4.80;99.90;;;;;;5028602;28;20105;-76
2022/12/18 08:16:16;;;;;;;58.73;24.90;;;-4.80;99.90;;;;;;5017687;28;20962;-76
2022/12/18 08:18:41;;;;;;;60.93;24.23;;;-4.80;99.90;;;;;;5014089;28;20044;-75
2022/12/18 08:21:16;;;;;;;58.80;24.20;;;-4.70;99.90;;;;;;5004306;28;20025;-77
2022/12/18 08:23:42;;;;;;;57.15;24.52;;;-4.70;99.90;;;;;;4997678;28;20021;-77
2022/12/18 08:26:08;;;;;;;58.10;26.27;;;-4.70;99.90;;;;;;5014789;28;20036;-75
2022/12/18 08:28:34;;;;;;;57.63;25.67;;;-4.60;99.90;;;;;;5021064;28;20025;-76
2022/12/18 08:31:00;;;;;;;62.63;26.13;;;-4.60;99.90;;;;;;5006775;28;20064;-76
2022/12/18 08:33:26;;;;;;;57.40;24.57;;;-4.60;99.90;;;;;;4997529;28;20457;-77
2022/12/18 08:35:52;;;;;;;62.93;25.77;;;-4.50;99.90;;;;;;5009228;28;20039;-77
2022/12/18 08:38:18;;;;;;;62.83;26.47;;;-4.50;99.90;;;;;;5017652;28;20017;-76
2022/12/18 08:40:43;;;;;;;56.40;23.60;;;-4.50;99.90;;;;;;5018823;28;20029;-77
2022/12/18 08:45:55;;;;;;;52.78;23.85;;;-4.50;99.90;;;;;;5019586;28;20106;-76
2022/12/18 08:48:21;;;;;;;55.73;24.43;;;-4.50;99.90;;;;;;5018682;28;20053;-76
2022/12/18 08:50:58;;;;;;;56.80;25.53;;;-4.40;99.90;;;;;;5018806;28;20018;-76
2022/12/18 08:53:24;;;;;;;56.17;23.43;;;-4.40;99.90;;;;;;5019832;28;20044;-76
2022/12/18 08:55:49;;;;;;;56.13;25.03;;;-4.40;99.90;;;;;;5015616;28;20351;-77
2022/12/18 08:58:15;;;;;;;54.87;24.80;;;-4.30;99.90;;;;;;5000799;28;20060;-76
2022/12/18 09:00:41;;;;;;;70.37;29.60;;;-4.30;99.90;;;;;;5018848;28;20025;-76
2022/12/18 09:03:14;;;;;;;59.03;26.40;;;-4.30;99.90;;;;;;5018764;28;20528;-77
2022/12/18 09:05:40;;;;;;;57.37;24.73;;;-4.30;99.90;;;;;;5018061;28;20029;-77
2022/12/18 09:08:05;;;;;;;53.43;24.73;;;-4.20;99.90;;;;;;5018368;28;20127;-76
2022/12/18 09:10:31;;;;;;;61.60;28.03;;;-4.20;99.90;;;;;;5019722;28;20032;-77
2022/12/18 09:12:57;;;;;;;61.63;30.00;;;-4.20;99.90;;;;;;5019717;28;20033;-76
2022/12/18 09:15:23;;;;;;;55.57;25.53;;;-4.20;99.90;;;;;;5017137;28;20067;-77
2022/12/18 09:17:49;;;;;;;67.63;30.80;;;-4.20;99.90;;;;;;5002008;28;20449;-76
2022/12/18 09:20:15;;;;;;;56.30;26.63;;;-4.20;99.90;;;;;;5017301;28;20014;-77
2022/12/18 09:22:41;;;;;;;60.77;27.57;;;-4.20;99.90;;;;;;5020347;28;20112;-76
2022/12/18 09:25:10;;;;;;;60.10;26.80;;;-4.20;99.90;;;;;;5017063;28;20687;-77
2022/12/18 09:27:35;;;;;;;55.30;24.13;;;-4.30;99.90;;;;;;5015756;28;20029;-77
2022/12/18 09:30:02;;;;;;;58.03;25.47;;;-4.20;99.90;;;;;;5003066;28;20041;-77
2022/12/18 09:32:27;;;;;;;62.47;28.07;;;-4.20;99.90;;;;;;5019515;28;20049;-76
2022/12/18 09:34:53;;;;;;;62.37;29.00;;;-4.20;99.90;;;;;;5000260;28;20502;-76
2022/12/18 09:37:19;;;;;;;62.97;29.13;;;-4.20;99.90;;;;;;5016809;28;20029;-77
2022/12/18 09:39:44;;;;;;;54.13;23.80;;;-4.20;99.90;;;;;;5019016;28;20025;-77
2022/12/18 09:42:20;;;;;;;50.93;23.87;;;-4.10;99.90;;;;;;5018415;28;20030;-77
2022/12/18 09:44:50;;;;;;;60.37;26.90;;;-4.10;99.90;;;;;;5017570;28;20057;-77
2022/12/18 09:47:27;;;;;;;54.53;26.60;;;-4.00;99.90;;;;;;5004302;28;20029;-77
2022/12/18 09:49:59;;;;;;;56.97;26.70;;;-4.00;99.90;;;;;;5021337;28;20120;-77
2022/12/18 09:52:41;;;;;;;53.73;23.33;;;-4.00;99.90;;;;;;5007283;28;20029;-77
2022/12/18 09:55:18;;;;;;;57.23;26.07;;;-4.10;99.90;;;;;;5001458;28;20037;-77
2022/12/18 09:57:51;;;;;;;57.67;25.53;;;-4.00;99.90;;;;;;5005501;28;20149;-77
2022/12/18 10:00:22;;;;;;;65.07;28.37;;;-4.00;99.90;;;;;;5007675;28;20025;-77
2022/12/18 10:02:50;;;;;;;50.73;23.73;;;-3.90;99.90;;;;;;5022215;28;20018;-76
2022/12/18 10:05:19;;;;;;;50.47;23.87;;;-3.70;99.90;;;;;;5015366;28;20021;-77
2022/12/18 10:08:02;;;;;;;52.57;24.07;;;-3.70;99.90;;;;;;5020915;28;20064;-76
2022/12/18 10:10:36;;;;;;;46.90;21.47;;;-3.60;99.90;;;;;;5006016;28;20105;-76
2022/12/18 10:13:20;;;;;;;45.20;20.38;;;-3.50;99.90;;;;;;5005642;28;20033;-76
2022/12/18 10:16:03;;;;;;;43.47;20.77;;;-3.40;99.90;;;;;;5021018;28;20033;-76
2022/12/18 10:18:48;;;;;;;45.17;19.87;;;-3.30;99.90;;;;;;5022576;28;20053;-77
2022/12/18 10:21:42;;;;;;;40.17;20.20;;;-3.20;99.90;;;;;;5024354;28;20017;-76
2022/12/18 10:24:18;;;;;;;42.60;19.70;;;-3.20;99.90;;;;;;5008776;28;20041;-77
2022/12/18 10:26:44;;;;;;;43.63;20.53;;;-3.10;99.90;;;;;;5017728;28;20089;-77
2022/12/18 10:29:12;;;;;;;43.53;20.93;;;-3.10;99.90;;;;;;5019475;28;20034;-77
2022/12/18 10:31:38;;;;;;;41.80;21.60;;;-3.00;99.90;;;;;;5003341;28;20105;-77
2022/12/18 10:34:04;;;;;;;41.43;20.97;;;-3.00;99.90;;;;;;5004336;28;20039;-77
2022/12/18 10:36:30;;;;;;;41.77;20.50;;;-3.00;99.90;;;;;;5016298;28;20033;-76
2022/12/18 10:39:22;;;;;;;40.90;20.60;;;-2.90;99.90;;;;;;5011248;28;20034;-77
2022/12/18 10:41:48;;;;;;;40.50;19.30;;;-2.90;99.90;;;;;;5009319;28;20034;-76
2022/12/18 10:44:16;;;;;;;42.07;20.63;;;-2.90;99.90;;;;;;5014414;28;20128;-75
2022/12/18 10:46:43;;;;;;;45.33;20.40;;;-3.00;99.90;;;;;;5017160;28;20028;-76
2022/12/18 10:49:23;;;;;;;43.60;20.20;;;-3.00;99.90;;;;;;5022507;28;21150;-76
2022/12/18 10:51:49;;;;;;;42.87;21.17;;;-3.00;99.90;;;;;;5023044;28;20022;-75
2022/12/18 10:54:25;;;;;;;48.33;23.10;;;-3.10;99.90;;;;;;5022890;28;20052;-76
2022/12/18 10:56:50;;;;;;;;;;;-3.10;99.90;;;;;;5022518;28;20135;-76
2022/12/18 10:59:17;;;;;;;45.13;20.00;;;-3.10;99.90;;;;;;5022118;28;19999;-76
2022/12/18 11:01:55;;;;;;;41.13;18.77;;;-3.10;99.90;;;;;;5022920;28;20025;-76
2022/12/18 11:04:31;;;;;;;43.07;21.43;;;-3.00;99.90;;;;;;5029253;28;20036;-76
2022/12/18 11:07:00;;;;;;;43.63;22.23;;;-3.10;99.90;;;;;;5026800;28;20514;-76
2022/12/18 11:09:35;;;;;;;45.87;20.70;;;-3.00;99.90;;;;;;5026238;28;20104;-76
2022/12/18 11:12:14;;;;;;;46.00;21.55;;;-3.00;99.90;;;;;;5051410;28;20734;-76
2022/12/18 11:14:48;;;;;;;45.90;20.97;;;-3.00;99.90;;;;;;5029798;28;20526;-75
2022/12/18 11:17:31;;;;;;;44.80;21.33;;;-3.00;99.90;;;;;;5026702;28;20026;-75
2022/12/18 11:19:59;;;;;;;45.20;21.37;;;-3.10;99.90;;;;;;5027108;28;20034;-74
2022/12/18 11:22:36;;;;;;;50.90;21.90;;;-3.20;99.90;;;;;;5015951;28;20351;-75
2022/12/18 11:25:10;;;;;;;50.13;25.07;;;-3.20;99.90;;;;;;5028347;28;20095;-75
2022/12/18 11:27:38;;;;;;;43.22;21.27;;;-3.30;99.90;;;;;;5026408;28;20037;-75
2022/12/18 11:30:10;;;;;;;47.23;22.57;;;-3.30;99.90;;;;;;5047466;28;20186;-75
2022/12/18 11:32:42;;;;;;;45.03;21.30;;;-3.30;99.90;;;;;;5027286;28;20471;-75
2022/12/18 11:35:42;;;;;;;46.13;21.43;;;-3.30;99.90;;;;;;5026297;28;20021;-75
2022/12/18 11:38:34;;;;;;;42.63;20.13;;;-3.20;99.90;;;;;;5029892;28;20040;-76
2022/12/18 11:41:18;;;;;;;45.13;20.33;;;-3.10;99.90;;;;;;5001721;28;20040;-76
2022/12/18 11:43:55;;;;;;;44.40;22.27;;;-3.00;99.90;;;;;;5027397;28;20343;-75
2022/12/18 11:46:43;;;;;;;48.07;22.60;;;-3.00;99.90;;;;;;5024684;28;20471;-75
2022/12/18 11:49:22;;;;;;;48.93;22.00;;;-3.00;99.90;;;;;;5024096;28;20544;-75
2022/12/18 11:51:58;;;;;;;52.10;24.90;;;-3.00;99.90;;;;;;5030659;28;20061;-74
2022/12/18 11:54:24;;;;;;;57.27;26.30;;;-3.00;99.90;;;;;;5020561;28;20476;-74
2022/12/18 11:56:55;;;;;;;59.83;25.90;;;-3.10;99.90;;;;;;5031330;28;20045;-74
2022/12/18 11:59:45;;;;;;;57.43;27.67;;;-3.20;99.90;;;;;;5029395;28;20041;-74
2022/12/18 12:02:13;;;;;;;58.37;28.60;;;-3.20;99.90;;;;;;5029363;28;20044;-74
2022/12/18 12:04:59;;;;;;;58.60;27.30;;;-3.30;99.90;;;;;;5030281;28;20017;-74
2022/12/18 12:07:31;;;;;;;52.73;25.47;;;-3.30;99.90;;;;;;5028531;28;20143;-74
2022/12/18 12:10:08;;;;;;;51.27;23.70;;;-3.40;99.90;;;;;;5030141;28;20029;-74
2022/12/18 12:12:53;;;;;;;49.83;23.30;;;-3.40;99.90;;;;;;5029133;28;20013;-73
2022/12/18 12:15:35;;;;;;;51.40;23.77;;;-3.50;99.90;;;;;;5032211;28;20034;-74
2022/12/18 12:18:21;;;;;;;63.40;27.73;;;-3.60;99.90;;;;;;5029734;28;20161;-74
2022/12/18 12:21:04;;;;;;;66.85;28.98;;;-3.60;99.90;;;;;;5029246;28;20036;-74
2022/12/18 12:23:53;;;;;;;61.40;25.97;;;-3.60;99.90;;;;;;5028549;28;20024;-74
2022/12/18 12:26:27;;;;;;;55.13;25.87;;;-3.60;99.90;;;;;;5020739;28;20061;-74
2022/12/18 12:29:09;;;;;;;58.07;26.70;;;-3.60;99.90;;;;;;5028018;28;20060;-74
2022/12/18 12:31:47;;;;;;;64.60;27.40;;;-3.60;99.90;;;;;;5029459;28;20029;-74
2022/12/18 12:34:42;;;;;;;58.77;28.10;;;-3.70;99.90;;;;;;5028326;28;20111;-74
2022/12/18 12:37:45;;;;;;;61.20;28.17;;;-3.70;99.90;;;;;;4990555;28;20037;-74
2022/12/18 12:40:23;;;;;;;63.30;28.90;;;-3.70;99.90;;;;;;5028794;28;20031;-74
2022/12/18 12:43:13;;;;;;;63.17;27.67;;;-3.70;99.90;;;;;;5026382;28;20025;-74
2022/12/18 12:46:02;;;;;;;64.50;27.63;;;-3.70;99.90;;;;;;5029003;28;20052;-74
2022/12/18 12:48:32;;;;;;;72.20;29.23;;;-3.70;99.90;;;;;;5025493;28;20149;-74
2022/12/18 12:51:26;;;;;;;63.80;29.00;;;-3.60;99.90;;;;;;5025539;28;20060;-74
2022/12/18 12:53:56;;;;;;;54.97;23.73;;;-3.60;99.90;;;;;;5023545;28;20076;-74
2022/12/18 12:56:24;;;;;;;57.27;25.67;;;-3.60;99.90;;;;;;5013547;28;20044;-74